Time;durP1;ratioP1;P1;durP2;ratioP2;P2;SDS_P1;SDS_P2;PMS_P1;PMS_P2;Temp;Humidity;BMP_temperature;BMP_pressure;BME280_temperature;BME280_humidity;BME280_pressure;Samples;Min_cycle;Max_cycle;Signal;HPM_P1;HPM_P2
2023/03/09 00:01:07;;;;;;;;;;;;;;;;;;10445618;28;19917;-73
2023/03/09 00:06:28;;;;;;;;;;;;;;;;;;10454544;28;19916;-73
2023/03/09 00:11:48;;;;;;;;;;;;;;;;;;10448707;28;19917;-73
2023/03/09 00:17:09;;;;;;;;;;;;;;;;;;10453548;28;19924;-73
2023/03/09 00:22:30;;;;;;;;;;;;;;;;;;10450923;28;19924;-73
2023/03/09 00:27:51;;;;;;;;;;;;;;;;;;10447481;28;19916;-74
2023/03/09 00:33:11;;;;;;;;;;;;;;;;;;10472494;28;19920;-74
2023/03/09 00:38:32;;;;;;;;;;;;;;;;;;10456964;28;20386;-73
2023/03/09 00:43:53;;;;;;;;;;;;;;;;;;10454690;28;19916;-74
2023/03/09 00:49:13;;;;;;;;;;;;;;;;;;10427467;28;19921;-74
2023/03/09 00:54:34;;;;;;;;;;;;;;;;;;10422827;28;19928;-73
2023/03/09 00:59:55;;;;;;;;;;;;;;;;;;10443046;28;19917;-74
2023/03/09 01:05:15;;;;;;;;;;;;;;;;;;10445993;28;19935;-73
2023/03/09 01:10:36;;;;;;;;;;;;;;;;;;10443001;28;19920;-73
2023/03/09 01:15:57;;;;;;;;;;;;;;;;;;10447376;28;19963;-74
2023/03/09 01:21:17;;;;;;;;;;;;;;;;;;10451066;28;19917;-74
2023/03/09 01:26:38;;;;;;;;;;;;;;;;;;10449644;28;19920;-73
2023/03/09 01:31:59;;;;;;;;;;;;;;;;;;10453503;28;19912;-73
2023/03/09 01:37:19;;;;;;;;;;;;;;;;;;10454799;28;19951;-73
2023/03/09 01:42:40;;;;;;;;;;;;;;;;;;10448147;28;20447;-73
2023/03/09 01:48:01;;;;;;;;;;;;;;;;;;10450264;28;19913;-74
2023/03/09 01:53:22;;;;;;;;;;;;;;;;;;10448810;28;19939;-74
2023/03/09 01:58:42;;;;;;;;;;;;;;;;;;10449230;28;19927;-73
2023/03/09 02:04:03;;;;;;;;;;;;;;;;;;10468705;28;19920;-73
2023/03/09 02:09:24;;;;;;;;;;;;;;;;;;10449572;28;19920;-73
2023/03/09 02:14:45;;;;;;;;;;;;;;;;;;10447278;28;19923;-73
2023/03/09 02:20:06;;;;;;;;;;;;;;;;;;10449986;28;19975;-73
2023/03/09 02:25:26;;;;;;;;;;;;;;;;;;10445192;28;19917;-73
2023/03/09 02:30:47;;;;;;;;;;;;;;;;;;10448460;28;19920;-73
2023/03/09 02:36:08;;;;;;;;;;;;;;;;;;10450545;28;19924;-73
2023/03/09 02:41:28;;;;;;;;;;;;;;;;;;10431901;28;19924;-73
2023/03/09 02:46:49;;;;;;;;;;;;;;;;;;10435932;28;20421;-73
2023/03/09 02:52:10;;;;;;;;;;;;;;;;;;10449422;28;20306;-73
2023/03/09 02:57:30;;;;;;;;;;;;;;;;;;10438131;28;19924;-73
2023/03/09 03:02:51;;;;;;;;;;;;;;;;;;10452810;28;19921;-73
2023/03/09 03:08:12;;;;;;;;;;;;;;;;;;10457941;28;19912;-73
2023/03/09 03:13:32;;;;;;;;;;;;;;;;;;10452173;28;19921;-75
2023/03/09 03:18:53;;;;;;;;;;;;;;;;;;10458607;28;19990;-75
2023/03/09 03:24:14;;;;;;;;;;;;;;;;;;10455208;28;19916;-75
2023/03/09 03:29:35;;;;;;;;;;;;;;;;;;10468324;28;19919;-75
2023/03/09 03:34:55;;;;;;;;;;;;;;;;;;10454160;28;19917;-75
2023/03/09 03:40:16;;;;;;;;;;;;;;;;;;10452566;28;20295;-75
2023/03/09 03:45:37;;;;;;;;;;;;;;;;;;10449349;28;19924;-75
2023/03/09 03:50:57;;;;;;;;;;;;;;;;;;10456974;28;19924;-75
2023/03/09 03:56:18;;;;;;;;;;;;;;;;;;10460116;28;19975;-76
2023/03/09 04:01:39;;;;;;;;;;;;;;;;;;10444844;28;19937;-76
2023/03/09 04:06:59;;;;;;;;;;;;;;;;;;10446164;28;19913;-77
2023/03/09 04:12:20;;;;;;;;;;;;;;;;;;10461177;28;19946;-77
2023/03/09 04:17:41;;;;;;;;;;;;;;;;;;10481652;28;20363;-76
2023/03/09 04:23:01;;;;;;;;;;;;;;;;;;10476731;28;19928;-77
2023/03/09 04:28:22;;;;;;;;;;;;;;;;;;10471197;28;19924;-77
2023/03/09 04:33:43;;;;;;;;;;;;;;;;;;10473621;28;19955;-76
2023/03/09 04:39:07;;;;;;;;;;;;;;;;;;10453515;28;19923;-77
2023/03/09 04:44:28;;;;;;;;;;;;;;;;;;10465486;28;19916;-77
2023/03/09 04:49:49;;;;;;;;;;;;;;;;;;10465176;28;19969;-77
2023/03/09 04:55:09;;;;;;;;;;;;;;;;;;10459038;28;20391;-77
2023/03/09 05:00:30;;;;;;;;;;;;;;;;;;10463855;28;19916;-77
2023/03/09 05:05:51;;;;;;;;;;;;;;;;;;10451663;28;20429;-77
2023/03/09 05:11:11;;;;;;;;;;;;;;;;;;10457575;28;19917;-76
2023/03/09 05:16:32;;;;;;;;;;;;;;;;;;10460960;28;19920;-77
2023/03/09 05:21:53;;;;;;;;;;;;;;;;;;10464771;28;20240;-76
2023/03/09 05:27:13;;;;;;;;;;;;;;;;;;10452188;28;19928;-77
2023/03/09 05:32:34;;;;;;;;;;;;;;;;;;10456874;28;19915;-77
2023/03/09 05:37:55;;;;;;;;;;;;;;;;;;10452921;28;19908;-76
2023/03/09 05:43:16;;;;;;;;;;;;;;;;;;10452126;28;20375;-76
2023/03/09 05:48:36;;;;;;;;;;;;;;;;;;10450994;28;19917;-76
2023/03/09 05:53:57;;;;;;;;;;;;;;;;;;10454479;28;19929;-76
2023/03/09 05:59:18;;;;;;;;;;;;;;;;;;10467369;28;19920;-76
2023/03/09 06:04:38;;;;;;;;;;;;;;;;;;10445353;28;19925;-76
2023/03/09 06:09:59;;;;;;;;;;;;;;;;;;10461848;28;19920;-76
2023/03/09 06:15:20;;;;;;;;;;;;;;;;;;10442658;28;20364;-76
2023/03/09 06:20:40;;;;;;;;;;;;;;;;;;10463034;28;19917;-76
2023/03/09 06:26:01;;;;;;;;;;;;;;;;;;10453064;28;20123;-76
2023/03/09 06:31:22;;;;;;;;;;;;;;;;;;10446158;28;20307;-76
2023/03/09 06:36:42;;;;;;;;;;;;;;;;;;10431469;28;19942;-76
2023/03/09 06:42:03;;;;;;;;;;;;;;;;;;10449842;28;19917;-75
2023/03/09 06:47:24;;;;;;;;;;;;;;;;;;10435245;28;19917;-76
2023/03/09 06:52:44;;;;;;;;;;;;;;;;;;10468641;28;19928;-75
2023/03/09 06:58:05;;;;;;;;;;;;;;;;;;10442900;28;19917;-74
2023/03/09 07:03:26;;;;;;;;;;;;;;;;;;10440206;28;19916;-76
2023/03/09 07:08:46;;;;;;;;;;;;;;;;;;10449195;28;20295;-76
2023/03/09 07:14:07;;;;;;;;;;;;;;;;;;10441518;28;19913;-75
2023/03/09 07:19:28;;;;;;;;;;;;;;;;;;10451039;28;19925;-75
2023/03/09 07:24:49;;;;;;;;;;;;;;;;;;10449435;28;19917;-74
2023/03/09 07:30:09;;;;;;;;;;;;;;;;;;10442994;28;19917;-75
2023/03/09 07:35:30;;;;;;;;;;;;;;;;;;10457401;28;19924;-75
2023/03/09 07:40:51;;;;;;;;;;;;;;;;;;10444697;28;19923;-75
2023/03/09 07:46:12;;;;;;;;;;;;;;;;;;10441233;28;19924;-75
2023/03/09 07:51:33;;;;;;;;;;;;;;;;;;10453722;28;19924;-75
2023/03/09 07:56:55;;;;;;;;;;;;;;;;;;10457782;28;19919;-75
2023/03/09 08:02:15;;;;;;;;;;;;;;;;;;10440225;28;19929;-74
2023/03/09 08:07:36;;;;;;;;;;;;;;;;;;10471806;28;19917;-75
2023/03/09 08:12:57;;;;;;;;;;;;;;;;;;10459949;28;19986;-75
2023/03/09 08:18:18;;;;;;;;;;;;;;;;;;10484451;28;20253;-75
2023/03/09 08:23:43;;;;;;;;;;;;;;;;;;10485889;28;19920;-74
2023/03/09 08:29:04;;;;;;;;;;;;;;;;;;10486701;28;19919;-74
2023/03/09 08:34:25;;;;;;;;;;;;;;;;;;10482563;28;19915;-75
2023/03/09 08:39:45;;;;;;;;;;;;;;;;;;10481889;28;19917;-75
2023/03/09 08:45:07;;;;;;;;;;;;;;;;;;10485908;28;19924;-75
2023/03/09 08:50:27;;;;;;;;;;;;;;;;;;10479810;28;20398;-75
2023/03/09 08:55:48;;;;;;;;;;;;;;;;;;10484656;28;19927;-74
2023/03/09 09:01:09;;;;;;;;;;;;;;;;;;10476884;28;19920;-74
2023/03/09 09:06:29;;;;;;;;;;;;;;;;;;10465812;28;19909;-74
2023/03/09 09:11:50;;;;;;;;;;;;;;;;;;10451202;28;20291;-74
2023/03/09 09:17:11;;;;;;;;;;;;;;;;;;10490078;28;19919;-74
2023/03/09 09:22:32;;;;;;;;;;;;;;;;;;10482078;28;19927;-74
2023/03/09 09:27:53;;;;;;;;;;;;;;;;;;10484758;28;20298;-74
2023/03/09 09:33:14;;;;;;;;;;;;;;;;;;10477609;28;19921;-74
2023/03/09 09:38:34;;;;;;;;;;;;;;;;;;10456703;28;20489;-76
2023/03/09 09:43:55;;;;;;;;;;;;;;;;;;10469210;28;19916;-76
2023/03/09 09:49:16;;;;;;;;;;;;;;;;;;10474989;28;19913;-76
2023/03/09 09:54:36;;;;;;;;;;;;;;;;;;10447784;28;19921;-76
2023/03/09 09:59:57;;;;;;;;;;;;;;;;;;10454613;28;19921;-76
2023/03/09 10:05:18;;;;;;;;;;;;;;;;;;10443203;28;19924;-76
2023/03/09 10:10:38;;;;;;;;;;;;;;;;;;10449976;28;19959;-76
2023/03/09 10:16:01;;;;;;;;;;;;;;;;;;10451185;28;20120;-73
2023/03/09 10:21:22;;;;;;;;;;;;;;;;;;10453595;28;19927;-74
2023/03/09 10:26:42;;;;;;;;;;;;;;;;;;10448245;28;19925;-75
2023/03/09 10:32:05;;;;;;;;;;;;;;;;;;10462280;28;20062;-75
2023/03/09 10:37:25;;;;;;;;;;;;;;;;;;10469186;28;19916;-76
2023/03/09 10:42:46;;;;;;;;;;;;;;;;;;10469121;28;20067;-74
2023/03/09 10:48:07;;;;;;;;;;;;;;;;;;10459273;28;20276;-73
2023/03/09 10:53:27;;;;;;;;;;;;;;;;;;10456404;28;19921;-74
2023/03/09 10:58:48;;;;;;;;;;;;;;;;;;10455385;28;19955;-75
2023/03/09 11:04:09;;;;;;;;;;;;;;;;;;10454277;28;19940;-74
2023/03/09 11:09:30;;;;;;;;;;;;;;;;;;10459740;28;20036;-74
2023/03/09 11:14:51;;;;;;;;;;;;;;;;;;10443357;28;19924;-76
2023/03/09 11:20:12;;;;;;;;;;;;;;;;;;10444073;28;19921;-75
2023/03/09 11:25:32;;;;;;;;;;;;;;;;;;10464572;28;19955;-73
2023/03/09 11:30:53;;;;;;;;;;;;;;;;;;10464112;28;19917;-73
2023/03/09 11:36:14;;;;;;;;;;;;;;;;;;10463812;28;19924;-75
2023/03/09 11:41:35;;;;;;;;;;;;;;;;;;10467993;28;20087;-75
2023/03/09 11:46:55;;;;;;;;;;;;;;;;;;10470710;28;20288;-74
2023/03/09 11:52:16;;;;;;;;;;;;;;;;;;10465159;28;19927;-75
2023/03/09 11:57:37;;;;;;;;;;;;;;;;;;10470958;28;19923;-75
2023/03/09 12:02:57;;;;;;;;;;;;;;;;;;10461369;28;19921;-74
2023/03/09 12:08:18;;;;;;;;;;;;;;;;;;10462320;28;19923;-74
2023/03/09 12:13:39;;;;;;;;;;;;;;;;;;10471490;28;20287;-74
2023/03/09 12:19:00;;;;;;;;;;;;;;;;;;10467422;28;19920;-73
2023/03/09 12:24:21;;;;;;;;;;;;;;;;;;10458335;28;19924;-73
2023/03/09 12:29:43;;;;;;;;;;;;;;;;;;10465357;28;20372;-74
2023/03/09 12:35:03;;;;;;;;;;;;;;;;;;10456648;28;19920;-74
2023/03/09 12:40:25;;;;;;;;;;;;;;;;;;10470809;28;19945;-74
2023/03/09 12:45:46;;;;;;;;;;;;;;;;;;10464958;28;19924;-74
2023/03/09 12:51:07;;;;;;;;;;;;;;;;;;10466150;28;19920;-72
2023/03/09 12:56:28;;;;;;;;;;;;;;;;;;10460143;28;20452;-74
2023/03/09 13:01:49;;;;;;;;;;;;;;;;;;10462639;28;19935;-72
2023/03/09 13:07:10;;;;;;;;;;;;;;;;;;10461852;28;20303;-77
2023/03/09 13:12:30;;;;;;;;;;;;;;;;;;10463897;28;19931;-77
2023/03/09 13:17:51;;;;;;;;;;;;;;;;;;10458612;28;19921;-74
2023/03/09 13:23:12;;;;;;;;;;;;;;;;;;10470143;28;19924;-74
2023/03/09 13:28:33;;;;;;;;;;;;;;;;;;10457345;28;19928;-77
2023/03/09 13:33:54;;;;;;;;;;;;;;;;;;10467457;28;19963;-76
2023/03/09 13:39:15;;;;;;;;;;;;;;;;;;10463119;28;19936;-75
2023/03/09 13:44:36;;;;;;;;;;;;;;;;;;10454162;28;19920;-78
2023/03/09 13:49:57;;;;;;;;;;;;;;;;;;10459829;28;19915;-82
2023/03/09 13:55:20;;;;;;;;;;;;;;;;;;10445856;28;19920;-79
2023/03/09 14:00:41;;;;;;;;;;;;;;;;;;10463247;28;19912;-81
2023/03/09 14:06:03;;;;;;;;;;;;;;;;;;10462218;28;19966;-77
2023/03/09 14:11:23;;;;;;;;;;;;;;;;;;10451192;28;19913;-76
2023/03/09 14:16:44;;;;;;;;;;;;;;;;;;10455394;28;19917;-77
2023/03/09 14:22:05;;;;;;;;;;;;;;;;;;10463638;28;19912;-77
2023/03/09 14:27:26;;;;;;;;;;;;;;;;;;10454886;28;19920;-76
2023/03/09 14:32:47;;;;;;;;;;;;;;;;;;10465740;28;20450;-76
2023/03/09 14:38:08;;;;;;;;;;;;;;;;;;10453702;28;19913;-76
2023/03/09 14:43:28;;;;;;;;;;;;;;;;;;10466468;28;19924;-76
2023/03/09 14:48:49;;;;;;;;;;;;;;;;;;10449686;28;20303;-77
2023/03/09 14:54:10;;;;;;;;;;;;;;;;;;10463763;28;19920;-76
2023/03/09 14:59:31;;;;;;;;;;;;;;;;;;10452362;28;20338;-77
2023/03/09 15:04:52;;;;;;;;;;;;;;;;;;10465125;28;19924;-76
2023/03/09 15:10:13;;;;;;;;;;;;;;;;;;10468167;28;19927;-76
2023/03/09 15:15:33;;;;;;;;;;;;;;;;;;10473207;28;19916;-77
2023/03/09 15:20:54;;;;;;;;;;;;;;;;;;10462248;28;20398;-76
2023/03/09 15:26:15;;;;;;;;;;;;;;;;;;10459717;28;19917;-76
2023/03/09 15:31:35;;;;;;;;;;;;;;;;;;10462447;28;19913;-76
2023/03/09 15:36:56;;;;;;;;;;;;;;;;;;10461475;28;20411;-76
2023/03/09 15:42:17;;;;;;;;;;;;;;;;;;10461449;28;21530;-76
2023/03/09 15:47:37;;;;;;;;;;;;;;;;;;10464323;28;20545;-71
2023/03/09 15:52:58;;;;;;;;;;;;;;;;;;10460750;28;20319;-71
2023/03/09 15:58:19;;;;;;;;;;;;;;;;;;10454666;28;19931;-71
2023/03/09 16:03:39;;;;;;;;;;;;;;;;;;10456852;28;19924;-71
2023/03/09 16:09:00;;;;;;;;;;;;;;;;;;10458803;28;19913;-71
2023/03/09 16:14:21;;;;;;;;;;;;;;;;;;10458807;28;19909;-71
2023/03/09 16:19:42;;;;;;;;;;;;;;;;;;10452355;28;19913;-71
2023/03/09 16:25:02;;;;;;;;;;;;;;;;;;10450367;28;19921;-72
2023/03/09 16:30:23;;;;;;;;;;;;;;;;;;10453796;28;19931;-71
2023/03/09 16:35:44;;;;;;;;;;;;;;;;;;10448436;28;19921;-71
2023/03/09 16:41:05;;;;;;;;;;;;;;;;;;10450208;28;19924;-72
2023/03/09 16:46:26;;;;;;;;;;;;;;;;;;10456957;28;20268;-70
2023/03/09 16:51:46;;;;;;;;;;;;;;;;;;10443944;28;19932;-70
2023/03/09 16:57:07;;;;;;;;;;;;;;;;;;10449815;28;19951;-70
2023/03/09 17:02:28;;;;;;;;;;;;;;;;;;10447913;28;19924;-70
2023/03/09 17:07:48;;;;;;;;;;;;;;;;;;10458715;28;20299;-70
2023/03/09 17:13:09;;;;;;;;;;;;;;;;;;10452346;28;19921;-71
2023/03/09 17:18:30;;;;;;;;;;;;;;;;;;10463223;28;19913;-71
2023/03/09 17:23:51;;;;;;;;;;;;;;;;;;10439491;28;19920;-70
2023/03/09 17:29:15;;;;;;;;;;;;;;;;;;10455515;28;19915;-71
2023/03/09 17:34:36;;;;;;;;;;;;;;;;;;10445087;28;19917;-71
2023/03/09 17:39:56;;;;;;;;;;;;;;;;;;10443504;28;19920;-71
2023/03/09 17:45:18;;;;;;;;;;;;;;;;;;10447159;28;19917;-72
2023/03/09 17:50:39;;;;;;;;;;;;;;;;;;10443686;28;19924;-72
2023/03/09 17:55:59;;;;;;;;;;;;;;;;;;10439286;28;19916;-70
2023/03/09 18:01:20;;;;;;;;;;;;;;;;;;10433460;28;19920;-72
2023/03/09 18:06:41;;;;;;;;;;;;;;;;;;10443960;28;19916;-71
2023/03/09 18:12:01;;;;;;;;;;;;;;;;;;10442996;28;21023;-71
2023/03/09 18:17:22;;;;;;;;;;;;;;;;;;10454657;28;19927;-72
2023/03/09 18:22:43;;;;;;;;;;;;;;;;;;10451628;28;19968;-71
2023/03/09 18:28:04;;;;;;;;;;;;;;;;;;10448649;28;19921;-71
2023/03/09 18:33:24;;;;;;;;;;;;;;;;;;10444233;28;19923;-71
2023/03/09 18:38:45;;;;;;;;;;;;;;;;;;10448706;28;20295;-71
2023/03/09 18:44:06;;;;;;;;;;;;;;;;;;10453607;28;19924;-70
2023/03/09 18:49:26;;;;;;;;;;;;;;;;;;10437115;28;19916;-71
2023/03/09 18:54:47;;;;;;;;;;;;;;;;;;10460180;28;19931;-71
2023/03/09 19:00:08;;;;;;;;;;;;;;;;;;10450007;28;19999;-71
2023/03/09 19:05:29;;;;;;;;;;;;;;;;;;10455040;28;19973;-71
2023/03/09 19:10:50;;;;;;;;;;;;;;;;;;10444641;28;19920;-71
2023/03/09 19:16:10;;;;;;;;;;;;;;;;;;10455878;28;19924;-71
2023/03/09 19:21:32;;;;;;;;;;;;;;;;;;10454367;28;19960;-71
2023/03/09 19:26:53;;;;;;;;;;;;;;;;;;10446174;28;19916;-71
2023/03/09 19:32:14;;;;;;;;;;;;;;;;;;10446557;28;19916;-71
2023/03/09 19:37:35;;;;;;;;;;;;;;;;;;10448577;28;19947;-71
2023/03/09 19:42:56;;;;;;;;;;;;;;;;;;10451971;28;20337;-71
2023/03/09 19:48:17;;;;;;;;;;;;;;;;;;10452159;28;19916;-70
2023/03/09 19:53:37;;;;;;;;;;;;;;;;;;10463294;28;19937;-71
2023/03/09 19:58:58;;;;;;;;;;;;;;;;;;10458993;28;19924;-71
2023/03/09 20:04:19;;;;;;;;;;;;;;;;;;10455286;28;20295;-73
2023/03/09 20:09:39;;;;;;;;;;;;;;;;;;10453132;28;19917;-73
2023/03/09 20:15:00;;;;;;;;;;;;;;;;;;10455427;28;19954;-70
2023/03/09 20:20:21;;;;;;;;;;;;;;;;;;10450390;28;19923;-70
2023/03/09 20:25:42;;;;;;;;;;;;;;;;;;10455008;28;19975;-71
2023/03/09 20:31:02;;;;;;;;;;;;;;;;;;10448432;28;20422;-70
2023/03/09 20:36:23;;;;;;;;;;;;;;;;;;10455535;28;19917;-70
2023/03/09 20:41:44;;;;;;;;;;;;;;;;;;10447168;28;20336;-71
2023/03/09 20:47:04;;;;;;;;;;;;;;;;;;10458181;28;19924;-71
2023/03/09 20:52:25;;;;;;;;;;;;;;;;;;10447824;28;19932;-71
2023/03/09 20:57:46;;;;;;;;;;;;;;;;;;10458894;28;19917;-72
2023/03/09 21:03:06;;;;;;;;;;;;;;;;;;10458401;28;19916;-71
2023/03/09 21:08:27;;;;;;;;;;;;;;;;;;10452196;28;19932;-71
2023/03/09 21:13:48;;;;;;;;;;;;;;;;;;10450150;28;19916;-71
2023/03/09 21:19:08;;;;;;;;;;;;;;;;;;10448334;28;19916;-78
2023/03/09 21:24:29;;;;;;;;;;;;;;;;;;10463479;28;19919;-78
2023/03/09 21:29:50;;;;;;;;;;;;;;;;;;10451236;28;19923;-78
2023/03/09 21:35:11;;;;;;;;;;;;;;;;;;10449173;28;20386;-78
2023/03/09 21:40:31;;;;;;;;;;;;;;;;;;10457218;28;19908;-79
2023/03/09 21:45:52;;;;;;;;;;;;;;;;;;10443269;28;19913;-79
2023/03/09 21:51:13;;;;;;;;;;;;;;;;;;10453201;28;19924;-79
2023/03/09 21:56:33;;;;;;;;;;;;;;;;;;10473039;28;19913;-78
2023/03/09 22:01:54;;;;;;;;;;;;;;;;;;10453553;28;19935;-79
2023/03/09 22:07:16;;;;;;;;;;;;;;;;;;10453428;28;19920;-79
2023/03/09 22:12:38;;;;;;;;;;;;;;;;;;10471911;28;19928;-79
2023/03/09 22:17:59;;;;;;;;;;;;;;;;;;10455585;28;20386;-79
2023/03/09 22:23:19;;;;;;;;;;;;;;;;;;10446853;28;19923;-77
2023/03/09 22:28:40;;;;;;;;;;;;;;;;;;10457633;28;19913;-78
2023/03/09 22:34:02;;;;;;;;;;;;;;;;;;10448970;28;20317;-77
2023/03/09 22:39:23;;;;;;;;;;;;;;;;;;10466378;28;19923;-78
2023/03/09 22:44:43;;;;;;;;;;;;;;;;;;10463054;28;19924;-79
2023/03/09 22:50:04;;;;;;;;;;;;;;;;;;10456826;28;20006;-79
2023/03/09 22:55:25;;;;;;;;;;;;;;;;;;10466127;28;19921;-79
2023/03/09 23:00:45;;;;;;;;;;;;;;;;;;10468980;28;19950;-78
2023/03/09 23:06:06;;;;;;;;;;;;;;;;;;10455481;28;19912;-78
2023/03/09 23:11:27;;;;;;;;;;;;;;;;;;10457488;28;19924;-78
2023/03/09 23:16:47;;;;;;;;;;;;;;;;;;10459859;28;19913;-78
2023/03/09 23:22:08;;;;;;;;;;;;;;;;;;10463515;28;19952;-79
2023/03/09 23:27:29;;;;;;;;;;;;;;;;;;10473746;28;19917;-78
2023/03/09 23:32:49;;;;;;;;;;;;;;;;;;10455639;28;20375;-78
2023/03/09 23:38:10;;;;;;;;;;;;;;;;;;10466555;28;19916;-78
2023/03/09 23:43:31;;;;;;;;;;;;;;;;;;10476643;28;19925;-78
2023/03/09 23:48:52;;;;;;;;;;;;;;;;;;10467300;28;20473;-77
2023/03/09 23:54:12;;;;;;;;;;;;;;;;;;10467238;28;19932;-78
2023/03/09 23:59:34;;;;;;;;;;;;;;;;;;10459503;28;20364;-77
